sensor_id;sensor_type;location;lat;lon;timestamp;P1;durP1;ratioP1;P2;durP2;ratioP2
20038;SDS011;21737;42.868;25.320;2023-12-14T00:01:37;5.00;;;1.52;;
20038;SDS011;21737;42.868;25.320;2023-12-14T00:04:05;3.05;;;1.30;;
20038;SDS011;21737;42.868;25.320;2023-12-14T00:06:31;6.50;;;3.13;;
20038;SDS011;21737;42.868;25.320;2023-12-14T00:08:58;5.68;;;1.58;;
20038;SDS011;21737;42.868;25.320;2023-12-14T00:11:24;6.88;;;2.58;;
20038;SDS011;21737;42.868;25.320;2023-12-14T00:13:49;6.90;;;2.13;;
20038;SDS011;21737;42.868;25.320;2023-12-14T00:16:16;5.05;;;1.30;;
20038;SDS011;21737;42.868;25.320;2023-12-14T00:18:43;5.55;;;2.03;;
20038;SDS011;21737;42.868;25.320;2023-12-14T00:21:09;6.03;;;2.15;;
20038;SDS011;21737;42.868;25.320;2023-12-14T00:23:41;4.32;;;1.77;;
20038;SDS011;21737;42.868;25.320;2023-12-14T00:26:08;8.02;;;2.47;;
20038;SDS011;21737;42.868;25.320;2023-12-14T00:28:34;2.90;;;1.38;;
20038;SDS011;21737;42.868;25.320;2023-12-14T00:31:00;4.32;;;1.85;;
20038;SDS011;21737;42.868;25.320;2023-12-14T00:33:26;3.22;;;1.17;;
20038;SDS011;21737;42.868;25.320;2023-12-14T00:35:52;3.78;;;1.92;;
20038;SDS011;21737;42.868;25.320;2023-12-14T00:38:18;7.57;;;3.78;;
20038;SDS011;21737;42.868;25.320;2023-12-14T00:40:43;9.43;;;2.90;;
20038;SDS011;21737;42.868;25.320;2023-12-14T00:43:09;7.55;;;2.47;;
20038;SDS011;21737;42.868;25.320;2023-12-14T00:45:37;4.68;;;1.50;;
20038;SDS011;21737;42.868;25.320;2023-12-14T00:48:03;4.28;;;1.60;;
20038;SDS011;21737;42.868;25.320;2023-12-14T00:50:29;4.30;;;1.38;;
20038;SDS011;21737;42.868;25.320;2023-12-14T00:52:56;3.58;;;1.55;;
20038;SDS011;21737;42.868;25.320;2023-12-14T00:55:22;3.92;;;1.30;;
20038;SDS011;21737;42.868;25.320;2023-12-14T00:57:48;4.13;;;1.88;;
20038;SDS011;21737;42.868;25.320;2023-12-14T01:00:15;4.72;;;2.40;;
20038;SDS011;21737;42.868;25.320;2023-12-14T01:02:41;4.10;;;1.73;;
20038;SDS011;21737;42.868;25.320;2023-12-14T01:05:08;5.82;;;1.55;;
20038;SDS011;21737;42.868;25.320;2023-12-14T01:07:35;4.30;;;2.03;;
20038;SDS011;21737;42.868;25.320;2023-12-14T01:10:02;3.05;;;1.63;;
20038;SDS011;21737;42.868;25.320;2023-12-14T01:12:29;2.15;;;1.15;;
20038;SDS011;21737;42.868;25.320;2023-12-14T01:14:56;3.13;;;1.50;;
20038;SDS011;21737;42.868;25.320;2023-12-14T01:17:26;2.65;;;1.45;;
20038;SDS011;21737;42.868;25.320;2023-12-14T01:19:55;3.25;;;1.38;;
20038;SDS011;21737;42.868;25.320;2023-12-14T01:22:20;3.10;;;1.30;;
20038;SDS011;21737;42.868;25.320;2023-12-14T01:24:46;3.05;;;1.10;;
20038;SDS011;21737;42.868;25.320;2023-12-14T01:27:12;2.70;;;1.20;;
20038;SDS011;21737;42.868;25.320;2023-12-14T01:29:41;2.50;;;1.25;;
20038;SDS011;21737;42.868;25.320;2023-12-14T01:32:07;2.15;;;1.27;;
20038;SDS011;21737;42.868;25.320;2023-12-14T01:34:33;3.08;;;1.17;;
20038;SDS011;21737;42.868;25.320;2023-12-14T01:36:59;3.70;;;1.27;;
20038;SDS011;21737;42.868;25.320;2023-12-14T01:39:26;2.33;;;1.13;;
20038;SDS011;21737;42.868;25.320;2023-12-14T01:41:51;2.47;;;1.10;;
20038;SDS011;21737;42.868;25.320;2023-12-14T01:44:18;2.60;;;1.38;;
20038;SDS011;21737;42.868;25.320;2023-12-14T01:46:45;4.13;;;1.90;;
20038;SDS011;21737;42.868;25.320;2023-12-14T01:49:11;6.63;;;2.05;;
20038;SDS011;21737;42.868;25.320;2023-12-14T01:54:21;3.63;;;1.38;;
20038;SDS011;21737;42.868;25.320;2023-12-14T01:56:46;3.75;;;1.20;;
20038;SDS011;21737;42.868;25.320;2023-12-14T01:59:14;3.53;;;1.48;;
20038;SDS011;21737;42.868;25.320;2023-12-14T02:04:24;3.47;;;1.60;;
20038;SDS011;21737;42.868;25.320;2023-12-14T02:06:53;6.75;;;2.40;;
20038;SDS011;21737;42.868;25.320;2023-12-14T02:09:20;4.72;;;2.17;;
20038;SDS011;21737;42.868;25.320;2023-12-14T02:11:46;8.52;;;2.42;;
20038;SDS011;21737;42.868;25.320;2023-12-14T02:14:12;6.65;;;2.97;;
20038;SDS011;21737;42.868;25.320;2023-12-14T02:16:40;9.90;;;3.15;;
20038;SDS011;21737;42.868;25.320;2023-12-14T02:21:42;7.28;;;2.92;;
20038;SDS011;21737;42.868;25.320;2023-12-14T02:24:07;5.13;;;3.03;;
20038;SDS011;21737;42.868;25.320;2023-12-14T02:26:33;5.43;;;2.47;;
20038;SDS011;21737;42.868;25.320;2023-12-14T02:28:59;8.15;;;3.50;;
20038;SDS011;21737;42.868;25.320;2023-12-14T02:31:26;6.35;;;2.60;;
20038;SDS011;21737;42.868;25.320;2023-12-14T02:33:53;7.47;;;2.55;;
20038;SDS011;21737;42.868;25.320;2023-12-14T02:36:20;6.85;;;3.45;;
20038;SDS011;21737;42.868;25.320;2023-12-14T02:38:46;3.03;;;1.40;;
20038;SDS011;21737;42.868;25.320;2023-12-14T02:41:11;6.43;;;2.60;;
20038;SDS011;21737;42.868;25.320;2023-12-14T02:43:37;6.65;;;2.80;;
20038;SDS011;21737;42.868;25.320;2023-12-14T02:46:07;2.45;;;1.30;;
20038;SDS011;21737;42.868;25.320;2023-12-14T02:48:35;5.28;;;1.73;;
20038;SDS011;21737;42.868;25.320;2023-12-14T02:51:02;7.20;;;2.40;;
20038;SDS011;21737;42.868;25.320;2023-12-14T02:53:30;7.30;;;2.42;;
20038;SDS011;21737;42.868;25.320;2023-12-14T02:55:56;6.32;;;2.22;;
20038;SDS011;21737;42.868;25.320;2023-12-14T02:58:27;6.88;;;2.50;;
20038;SDS011;21737;42.868;25.320;2023-12-14T03:00:53;6.88;;;2.97;;
20038;SDS011;21737;42.868;25.320;2023-12-14T03:03:19;9.30;;;3.38;;
20038;SDS011;21737;42.868;25.320;2023-12-14T03:05:44;3.65;;;1.60;;
20038;SDS011;21737;42.868;25.320;2023-12-14T03:08:10;3.85;;;1.63;;
20038;SDS011;21737;42.868;25.320;2023-12-14T03:10:38;4.75;;;1.50;;
20038;SDS011;21737;42.868;25.320;2023-12-14T03:13:04;2.50;;;1.17;;
20038;SDS011;21737;42.868;25.320;2023-12-14T03:15:30;4.85;;;1.90;;
20038;SDS011;21737;42.868;25.320;2023-12-14T03:17:56;3.70;;;2.20;;
20038;SDS011;21737;42.868;25.320;2023-12-14T03:20:23;4.15;;;1.60;;
20038;SDS011;21737;42.868;25.320;2023-12-14T03:22:49;7.38;;;3.22;;
20038;SDS011;21737;42.868;25.320;2023-12-14T03:25:17;4.97;;;2.30;;
20038;SDS011;21737;42.868;25.320;2023-12-14T03:27:43;6.70;;;2.85;;
20038;SDS011;21737;42.868;25.320;2023-12-14T03:30:15;4.25;;;2.00;;
20038;SDS011;21737;42.868;25.320;2023-12-14T03:32:41;2.85;;;1.27;;
20038;SDS011;21737;42.868;25.320;2023-12-14T03:35:07;7.30;;;2.65;;
20038;SDS011;21737;42.868;25.320;2023-12-14T03:37:34;9.10;;;3.20;;
20038;SDS011;21737;42.868;25.320;2023-12-14T03:40:01;8.48;;;3.33;;
20038;SDS011;21737;42.868;25.320;2023-12-14T03:42:27;8.32;;;3.80;;
20038;SDS011;21737;42.868;25.320;2023-12-14T03:44:53;9.90;;;4.57;;
20038;SDS011;21737;42.868;25.320;2023-12-14T03:47:19;11.48;;;3.58;;
20038;SDS011;21737;42.868;25.320;2023-12-14T03:49:45;5.93;;;2.35;;
20038;SDS011;21737;42.868;25.320;2023-12-14T03:52:11;11.50;;;3.13;;
20038;SDS011;21737;42.868;25.320;2023-12-14T03:54:39;6.15;;;2.95;;
20038;SDS011;21737;42.868;25.320;2023-12-14T03:57:06;10.57;;;3.78;;
20038;SDS011;21737;42.868;25.320;2023-12-14T03:59:33;6.35;;;2.80;;
20038;SDS011;21737;42.868;25.320;2023-12-14T04:01:59;6.18;;;2.70;;
20038;SDS011;21737;42.868;25.320;2023-12-14T04:04:26;5.55;;;2.33;;
20038;SDS011;21737;42.868;25.320;2023-12-14T04:06:51;4.45;;;1.98;;
20038;SDS011;21737;42.868;25.320;2023-12-14T04:09:17;4.88;;;2.13;;
20038;SDS011;21737;42.868;25.320;2023-12-14T04:11:43;5.90;;;2.38;;
20038;SDS011;21737;42.868;25.320;2023-12-14T04:14:09;3.55;;;1.52;;
20038;SDS011;21737;42.868;25.320;2023-12-14T04:16:35;2.55;;;1.23;;
20038;SDS011;21737;42.868;25.320;2023-12-14T04:19:02;4.18;;;1.38;;
20038;SDS011;21737;42.868;25.320;2023-12-14T04:21:28;3.25;;;1.10;;
20038;SDS011;21737;42.868;25.320;2023-12-14T04:23:54;2.78;;;1.40;;
20038;SDS011;21737;42.868;25.320;2023-12-14T04:26:21;2.45;;;1.13;;
20038;SDS011;21737;42.868;25.320;2023-12-14T04:28:52;2.60;;;1.13;;
20038;SDS011;21737;42.868;25.320;2023-12-14T04:31:30;3.42;;;1.17;;
20038;SDS011;21737;42.868;25.320;2023-12-14T04:33:58;2.45;;;1.08;;
20038;SDS011;21737;42.868;25.320;2023-12-14T04:36:25;2.55;;;1.00;;
20038;SDS011;21737;42.868;25.320;2023-12-14T04:39:03;2.92;;;1.17;;
20038;SDS011;21737;42.868;25.320;2023-12-14T04:41:31;3.00;;;1.45;;
20038;SDS011;21737;42.868;25.320;2023-12-14T04:43:58;3.38;;;1.20;;
20038;SDS011;21737;42.868;25.320;2023-12-14T04:46:24;2.50;;;1.13;;
20038;SDS011;21737;42.868;25.320;2023-12-14T04:48:49;2.67;;;1.10;;
20038;SDS011;21737;42.868;25.320;2023-12-14T04:51:15;2.75;;;1.13;;
20038;SDS011;21737;42.868;25.320;2023-12-14T04:53:41;2.67;;;1.23;;
20038;SDS011;21737;42.868;25.320;2023-12-14T04:56:10;2.47;;;1.00;;
20038;SDS011;21737;42.868;25.320;2023-12-14T04:58:37;3.13;;;1.10;;
20038;SDS011;21737;42.868;25.320;2023-12-14T05:01:06;3.22;;;1.42;;
20038;SDS011;21737;42.868;25.320;2023-12-14T05:03:33;2.85;;;1.30;;
20038;SDS011;21737;42.868;25.320;2023-12-14T05:06:00;3.17;;;1.33;;
20038;SDS011;21737;42.868;25.320;2023-12-14T05:08:26;3.03;;;1.10;;
20038;SDS011;21737;42.868;25.320;2023-12-14T05:10:53;2.97;;;1.23;;
20038;SDS011;21737;42.868;25.320;2023-12-14T05:13:21;2.80;;;0.95;;
20038;SDS011;21737;42.868;25.320;2023-12-14T05:15:47;3.33;;;1.60;;
20038;SDS011;21737;42.868;25.320;2023-12-14T05:18:15;4.10;;;1.73;;
20038;SDS011;21737;42.868;25.320;2023-12-14T05:20:41;3.55;;;1.50;;
20038;SDS011;21737;42.868;25.320;2023-12-14T05:23:07;2.72;;;1.30;;
20038;SDS011;21737;42.868;25.320;2023-12-14T05:25:34;3.33;;;1.23;;
20038;SDS011;21737;42.868;25.320;2023-12-14T05:28:00;4.28;;;1.90;;
20038;SDS011;21737;42.868;25.320;2023-12-14T05:30:25;3.80;;;1.40;;
20038;SDS011;21737;42.868;25.320;2023-12-14T05:32:53;2.60;;;1.30;;
20038;SDS011;21737;42.868;25.320;2023-12-14T05:35:19;3.72;;;1.45;;
20038;SDS011;21737;42.868;25.320;2023-12-14T05:37:45;2.80;;;1.40;;
20038;SDS011;21737;42.868;25.320;2023-12-14T05:40:11;3.40;;;1.42;;
20038;SDS011;21737;42.868;25.320;2023-12-14T05:42:37;3.88;;;1.23;;
20038;SDS011;21737;42.868;25.320;2023-12-14T05:45:04;2.42;;;1.00;;
20038;SDS011;21737;42.868;25.320;2023-12-14T05:47:31;2.72;;;1.42;;
20038;SDS011;21737;42.868;25.320;2023-12-14T05:50:02;3.05;;;1.50;;
20038;SDS011;21737;42.868;25.320;2023-12-14T05:52:29;2.38;;;1.27;;
20038;SDS011;21737;42.868;25.320;2023-12-14T05:55:10;3.50;;;1.40;;
20038;SDS011;21737;42.868;25.320;2023-12-14T05:57:36;6.40;;;1.67;;
20038;SDS011;21737;42.868;25.320;2023-12-14T06:00:02;5.43;;;1.55;;
20038;SDS011;21737;42.868;25.320;2023-12-14T06:02:36;3.38;;;1.30;;
20038;SDS011;21737;42.868;25.320;2023-12-14T06:05:03;3.72;;;1.52;;
20038;SDS011;21737;42.868;25.320;2023-12-14T06:07:29;2.45;;;1.48;;
20038;SDS011;21737;42.868;25.320;2023-12-14T06:09:55;3.95;;;1.20;;
20038;SDS011;21737;42.868;25.320;2023-12-14T06:12:21;3.28;;;1.73;;
20038;SDS011;21737;42.868;25.320;2023-12-14T06:14:47;2.80;;;1.30;;
20038;SDS011;21737;42.868;25.320;2023-12-14T06:17:13;3.17;;;1.58;;
20038;SDS011;21737;42.868;25.320;2023-12-14T06:19:38;3.67;;;1.58;;
20038;SDS011;21737;42.868;25.320;2023-12-14T06:22:04;5.00;;;2.00;;
20038;SDS011;21737;42.868;25.320;2023-12-14T06:24:30;5.18;;;1.73;;
20038;SDS011;21737;42.868;25.320;2023-12-14T06:26:58;2.90;;;1.50;;
20038;SDS011;21737;42.868;25.320;2023-12-14T06:29:24;5.57;;;2.08;;
20038;SDS011;21737;42.868;25.320;2023-12-14T06:31:50;3.50;;;1.65;;
20038;SDS011;21737;42.868;25.320;2023-12-14T06:34:16;5.82;;;2.22;;
20038;SDS011;21737;42.868;25.320;2023-12-14T06:36:42;3.65;;;1.55;;
20038;SDS011;21737;42.868;25.320;2023-12-14T06:39:10;4.20;;;1.85;;
20038;SDS011;21737;42.868;25.320;2023-12-14T06:41:37;5.80;;;2.40;;
20038;SDS011;21737;42.868;25.320;2023-12-14T06:44:03;10.48;;;4.10;;
20038;SDS011;21737;42.868;25.320;2023-12-14T06:46:30;10.38;;;4.38;;
20038;SDS011;21737;42.868;25.320;2023-12-14T06:48:56;11.73;;;5.82;;
20038;SDS011;21737;42.868;25.320;2023-12-14T06:51:22;13.18;;;5.63;;
20038;SDS011;21737;42.868;25.320;2023-12-14T06:53:49;10.70;;;5.35;;
20038;SDS011;21737;42.868;25.320;2023-12-14T06:56:15;10.30;;;4.63;;
20038;SDS011;21737;42.868;25.320;2023-12-14T06:58:42;11.93;;;5.82;;
20038;SDS011;21737;42.868;25.320;2023-12-14T07:01:14;6.63;;;3.85;;
20038;SDS011;21737;42.868;25.320;2023-12-14T07:03:42;8.52;;;4.25;;
20038;SDS011;21737;42.868;25.320;2023-12-14T07:06:14;19.83;;;10.15;;
20038;SDS011;21737;42.868;25.320;2023-12-14T07:08:41;13.43;;;6.13;;
20038;SDS011;21737;42.868;25.320;2023-12-14T07:11:08;6.97;;;3.05;;
20038;SDS011;21737;42.868;25.320;2023-12-14T07:13:39;5.43;;;2.00;;
20038;SDS011;21737;42.868;25.320;2023-12-14T07:16:08;7.22;;;3.72;;
20038;SDS011;21737;42.868;25.320;2023-12-14T07:18:36;13.15;;;5.60;;
20038;SDS011;21737;42.868;25.320;2023-12-14T07:21:08;14.25;;;5.57;;
20038;SDS011;21737;42.868;25.320;2023-12-14T07:23:41;6.43;;;2.75;;
20038;SDS011;21737;42.868;25.320;2023-12-14T07:26:07;4.25;;;2.10;;
20038;SDS011;21737;42.868;25.320;2023-12-14T07:28:33;4.43;;;1.95;;
20038;SDS011;21737;42.868;25.320;2023-12-14T07:30:59;10.73;;;3.65;;
20038;SDS011;21737;42.868;25.320;2023-12-14T07:33:25;6.07;;;2.33;;
20038;SDS011;21737;42.868;25.320;2023-12-14T07:35:52;4.72;;;2.08;;
20038;SDS011;21737;42.868;25.320;2023-12-14T07:38:18;5.78;;;2.35;;
20038;SDS011;21737;42.868;25.320;2023-12-14T07:40:44;6.70;;;2.25;;
20038;SDS011;21737;42.868;25.320;2023-12-14T07:43:10;4.35;;;2.22;;
20038;SDS011;21737;42.868;25.320;2023-12-14T07:45:37;5.45;;;2.20;;
20038;SDS011;21737;42.868;25.320;2023-12-14T07:48:03;6.53;;;2.03;;
20038;SDS011;21737;42.868;25.320;2023-12-14T07:50:32;5.32;;;2.63;;
20038;SDS011;21737;42.868;25.320;2023-12-14T07:52:59;4.68;;;1.95;;
20038;SDS011;21737;42.868;25.320;2023-12-14T07:55:25;6.75;;;2.65;;
20038;SDS011;21737;42.868;25.320;2023-12-14T07:57:51;6.68;;;2.88;;
20038;SDS011;21737;42.868;25.320;2023-12-14T08:00:16;4.10;;;2.92;;
20038;SDS011;21737;42.868;25.320;2023-12-14T08:02:42;4.75;;;2.25;;
20038;SDS011;21737;42.868;25.320;2023-12-14T08:05:08;5.97;;;3.42;;
20038;SDS011;21737;42.868;25.320;2023-12-14T08:07:35;3.08;;;1.20;;
20038;SDS011;21737;42.868;25.320;2023-12-14T08:10:02;3.30;;;1.27;;
20038;SDS011;21737;42.868;25.320;2023-12-14T08:12:28;3.05;;;1.10;;
20038;SDS011;21737;42.868;25.320;2023-12-14T08:14:54;2.30;;;1.42;;
20038;SDS011;21737;42.868;25.320;2023-12-14T08:17:20;4.30;;;1.63;;
20038;SDS011;21737;42.868;25.320;2023-12-14T08:19:46;5.13;;;1.73;;
20038;SDS011;21737;42.868;25.320;2023-12-14T08:22:13;4.68;;;2.08;;
20038;SDS011;21737;42.868;25.320;2023-12-14T08:24:43;3.92;;;1.50;;
20038;SDS011;21737;42.868;25.320;2023-12-14T08:27:09;4.82;;;2.75;;
20038;SDS011;21737;42.868;25.320;2023-12-14T08:29:35;6.95;;;2.53;;
20038;SDS011;21737;42.868;25.320;2023-12-14T08:32:01;3.70;;;1.73;;
20038;SDS011;21737;42.868;25.320;2023-12-14T08:34:28;5.05;;;1.98;;
20038;SDS011;21737;42.868;25.320;2023-12-14T08:36:54;7.32;;;2.15;;
20038;SDS011;21737;42.868;25.320;2023-12-14T08:39:21;4.57;;;1.65;;
20038;SDS011;21737;42.868;25.320;2023-12-14T08:41:47;2.00;;;1.02;;
20038;SDS011;21737;42.868;25.320;2023-12-14T08:44:14;3.47;;;1.42;;
20038;SDS011;21737;42.868;25.320;2023-12-14T08:46:41;4.75;;;2.10;;
20038;SDS011;21737;42.868;25.320;2023-12-14T08:49:11;5.40;;;2.72;;
20038;SDS011;21737;42.868;25.320;2023-12-14T08:51:38;3.20;;;1.60;;
20038;SDS011;21737;42.868;25.320;2023-12-14T08:54:05;4.82;;;2.40;;
20038;SDS011;21737;42.868;25.320;2023-12-14T08:56:31;5.95;;;2.33;;
20038;SDS011;21737;42.868;25.320;2023-12-14T08:58:59;5.70;;;2.13;;
20038;SDS011;21737;42.868;25.320;2023-12-14T09:01:26;4.07;;;1.42;;
20038;SDS011;21737;42.868;25.320;2023-12-14T09:03:52;8.68;;;2.50;;
20038;SDS011;21737;42.868;25.320;2023-12-14T09:06:18;6.53;;;3.70;;
20038;SDS011;21737;42.868;25.320;2023-12-14T09:08:44;6.18;;;2.40;;
20038;SDS011;21737;42.868;25.320;2023-12-14T09:11:12;5.50;;;3.00;;
20038;SDS011;21737;42.868;25.320;2023-12-14T09:13:41;9.25;;;3.00;;
20038;SDS011;21737;42.868;25.320;2023-12-14T09:16:07;8.63;;;4.53;;
20038;SDS011;21737;42.868;25.320;2023-12-14T09:18:34;8.68;;;3.90;;
20038;SDS011;21737;42.868;25.320;2023-12-14T09:21:00;10.27;;;4.75;;
20038;SDS011;21737;42.868;25.320;2023-12-14T09:23:26;5.32;;;2.78;;
20038;SDS011;21737;42.868;25.320;2023-12-14T09:25:52;8.68;;;3.40;;
20038;SDS011;21737;42.868;25.320;2023-12-14T09:28:18;5.93;;;3.70;;
20038;SDS011;21737;42.868;25.320;2023-12-14T09:30:44;8.52;;;3.72;;
20038;SDS011;21737;42.868;25.320;2023-12-14T09:33:10;7.65;;;3.60;;
20038;SDS011;21737;42.868;25.320;2023-12-14T09:35:36;9.23;;;4.30;;
20038;SDS011;21737;42.868;25.320;2023-12-14T09:38:05;6.47;;;3.20;;
20038;SDS011;21737;42.868;25.320;2023-12-14T09:40:32;8.27;;;3.78;;
20038;SDS011;21737;42.868;25.320;2023-12-14T09:43:01;8.15;;;4.50;;
20038;SDS011;21737;42.868;25.320;2023-12-14T09:45:31;8.77;;;4.38;;
20038;SDS011;21737;42.868;25.320;2023-12-14T09:47:59;12.63;;;6.07;;
20038;SDS011;21737;42.868;25.320;2023-12-14T09:50:25;7.28;;;3.95;;
20038;SDS011;21737;42.868;25.320;2023-12-14T09:52:51;7.72;;;4.15;;
20038;SDS011;21737;42.868;25.320;2023-12-14T09:55:17;9.23;;;4.72;;
20038;SDS011;21737;42.868;25.320;2023-12-14T09:57:46;9.07;;;4.65;;
20038;SDS011;21737;42.868;25.320;2023-12-14T10:00:12;9.50;;;4.53;;
20038;SDS011;21737;42.868;25.320;2023-12-14T10:02:39;11.88;;;4.85;;
20038;SDS011;21737;42.868;25.320;2023-12-14T10:05:07;9.35;;;4.93;;
20038;SDS011;21737;42.868;25.320;2023-12-14T10:07:42;7.93;;;4.65;;
20038;SDS011;21737;42.868;25.320;2023-12-14T10:10:12;12.15;;;5.82;;
20038;SDS011;21737;42.868;25.320;2023-12-14T10:12:52;13.45;;;6.40;;
20038;SDS011;21737;42.868;25.320;2023-12-14T10:15:20;7.80;;;5.03;;
20038;SDS011;21737;42.868;25.320;2023-12-14T10:17:53;11.30;;;5.95;;
20038;SDS011;21737;42.868;25.320;2023-12-14T10:20:21;10.88;;;6.45;;
20038;SDS011;21737;42.868;25.320;2023-12-14T10:22:47;16.00;;;7.10;;
20038;SDS011;21737;42.868;25.320;2023-12-14T10:25:18;11.93;;;5.13;;
20038;SDS011;21737;42.868;25.320;2023-12-14T10:27:47;13.85;;;6.10;;
20038;SDS011;21737;42.868;25.320;2023-12-14T10:30:13;13.32;;;5.05;;
20038;SDS011;21737;42.868;25.320;2023-12-14T10:32:40;9.38;;;4.47;;
20038;SDS011;21737;42.868;25.320;2023-12-14T10:35:07;9.02;;;4.25;;
20038;SDS011;21737;42.868;25.320;2023-12-14T10:37:34;27.75;;;10.15;;
20038;SDS011;21737;42.868;25.320;2023-12-14T10:40:04;15.05;;;6.93;;
20038;SDS011;21737;42.868;25.320;2023-12-14T10:42:32;9.75;;;5.55;;
20038;SDS011;21737;42.868;25.320;2023-12-14T10:45:02;11.85;;;5.50;;
20038;SDS011;21737;42.868;25.320;2023-12-14T10:47:29;8.43;;;4.70;;
20038;SDS011;21737;42.868;25.320;2023-12-14T10:49:56;10.10;;;5.35;;
20038;SDS011;21737;42.868;25.320;2023-12-14T10:52:26;10.02;;;5.50;;
20038;SDS011;21737;42.868;25.320;2023-12-14T10:54:56;20.10;;;8.98;;
20038;SDS011;21737;42.868;25.320;2023-12-14T10:57:26;9.40;;;5.70;;
20038;SDS011;21737;42.868;25.320;2023-12-14T10:59:58;10.70;;;5.50;;
20038;SDS011;21737;42.868;25.320;2023-12-14T11:02:26;11.25;;;5.07;;
20038;SDS011;21737;42.868;25.320;2023-12-14T11:04:57;11.13;;;5.43;;
20038;SDS011;21737;42.868;25.320;2023-12-14T11:07:44;10.98;;;5.55;;
20038;SDS011;21737;42.868;25.320;2023-12-14T11:10:12;14.32;;;7.30;;
20038;SDS011;21737;42.868;25.320;2023-12-14T11:12:49;12.93;;;6.30;;
20038;SDS011;21737;42.868;25.320;2023-12-14T11:15:38;13.23;;;5.82;;
20038;SDS011;21737;42.868;25.320;2023-12-14T11:20:49;8.38;;;4.93;;
20038;SDS011;21737;42.868;25.320;2023-12-14T11:25:56;8.90;;;5.25;;
20038;SDS011;21737;42.868;25.320;2023-12-14T11:28:32;10.50;;;4.15;;
20038;SDS011;21737;42.868;25.320;2023-12-14T11:31:00;10.80;;;4.78;;
20038;SDS011;21737;42.868;25.320;2023-12-14T11:33:27;7.53;;;4.75;;
20038;SDS011;21737;42.868;25.320;2023-12-14T11:36:12;10.27;;;4.53;;
20038;SDS011;21737;42.868;25.320;2023-12-14T11:38:38;9.02;;;3.55;;
20038;SDS011;21737;42.868;25.320;2023-12-14T11:41:03;11.02;;;5.13;;
20038;SDS011;21737;42.868;25.320;2023-12-14T11:43:37;12.35;;;5.78;;
20038;SDS011;21737;42.868;25.320;2023-12-14T11:46:04;19.10;;;7.43;;
20038;SDS011;21737;42.868;25.320;2023-12-14T11:48:33;14.90;;;6.18;;
20038;SDS011;21737;42.868;25.320;2023-12-14T11:50:59;18.55;;;7.35;;
20038;SDS011;21737;42.868;25.320;2023-12-14T11:53:26;22.85;;;8.95;;
20038;SDS011;21737;42.868;25.320;2023-12-14T11:55:54;9.35;;;5.18;;
20038;SDS011;21737;42.868;25.320;2023-12-14T11:58:20;8.55;;;4.78;;
20038;SDS011;21737;42.868;25.320;2023-12-14T12:00:48;9.20;;;3.60;;
20038;SDS011;21737;42.868;25.320;2023-12-14T12:03:18;8.98;;;4.75;;
20038;SDS011;21737;42.868;25.320;2023-12-14T12:05:46;9.82;;;5.40;;
20038;SDS011;21737;42.868;25.320;2023-12-14T12:08:19;7.03;;;4.00;;
20038;SDS011;21737;42.868;25.320;2023-12-14T12:10:47;6.57;;;4.53;;
20038;SDS011;21737;42.868;25.320;2023-12-14T12:13:14;15.07;;;6.00;;
20038;SDS011;21737;42.868;25.320;2023-12-14T12:15:41;7.25;;;3.35;;
20038;SDS011;21737;42.868;25.320;2023-12-14T12:18:08;7.55;;;3.63;;
20038;SDS011;21737;42.868;25.320;2023-12-14T12:20:36;14.05;;;6.25;;
20038;SDS011;21737;42.868;25.320;2023-12-14T12:23:02;12.73;;;5.60;;
20038;SDS011;21737;42.868;25.320;2023-12-14T12:25:29;14.18;;;6.15;;
20038;SDS011;21737;42.868;25.320;2023-12-14T12:27:57;22.55;;;9.25;;
20038;SDS011;21737;42.868;25.320;2023-12-14T12:30:23;11.20;;;5.68;;
20038;SDS011;21737;42.868;25.320;2023-12-14T12:32:51;12.57;;;5.03;;
20038;SDS011;21737;42.868;25.320;2023-12-14T12:35:20;10.25;;;4.95;;
20038;SDS011;21737;42.868;25.320;2023-12-14T12:37:46;12.73;;;5.80;;
20038;SDS011;21737;42.868;25.320;2023-12-14T12:40:12;10.25;;;4.78;;
20038;SDS011;21737;42.868;25.320;2023-12-14T12:42:41;13.18;;;5.07;;
20038;SDS011;21737;42.868;25.320;2023-12-14T12:45:07;18.52;;;5.43;;
20038;SDS011;21737;42.868;25.320;2023-12-14T12:47:33;24.25;;;7.45;;
20038;SDS011;21737;42.868;25.320;2023-12-14T12:50:00;25.17;;;9.43;;
20038;SDS011;21737;42.868;25.320;2023-12-14T12:52:27;24.45;;;9.32;;
20038;SDS011;21737;42.868;25.320;2023-12-14T12:54:54;19.58;;;6.22;;
20038;SDS011;21737;42.868;25.320;2023-12-14T12:57:20;12.63;;;5.18;;
20038;SDS011;21737;42.868;25.320;2023-12-14T12:59:46;11.98;;;4.70;;
20038;SDS011;21737;42.868;25.320;2023-12-14T13:02:12;20.77;;;9.45;;
20038;SDS011;21737;42.868;25.320;2023-12-14T13:04:38;17.88;;;6.38;;
20038;SDS011;21737;42.868;25.320;2023-12-14T13:07:03;21.25;;;8.82;;
20038;SDS011;21737;42.868;25.320;2023-12-14T13:09:30;15.07;;;6.53;;
20038;SDS011;21737;42.868;25.320;2023-12-14T13:11:57;17.98;;;7.78;;
20038;SDS011;21737;42.868;25.320;2023-12-14T13:14:23;22.88;;;9.65;;
20038;SDS011;21737;42.868;25.320;2023-12-14T13:16:57;20.98;;;8.65;;
20038;SDS011;21737;42.868;25.320;2023-12-14T13:19:36;21.83;;;8.38;;
20038;SDS011;21737;42.868;25.320;2023-12-14T13:22:04;18.48;;;6.55;;
20038;SDS011;21737;42.868;25.320;2023-12-14T13:24:32;23.38;;;8.60;;
20038;SDS011;21737;42.868;25.320;2023-12-14T13:26:58;15.80;;;7.28;;
20038;SDS011;21737;42.868;25.320;2023-12-14T13:29:30;21.00;;;7.70;;
20038;SDS011;21737;42.868;25.320;2023-12-14T13:31:58;13.90;;;5.95;;
20038;SDS011;21737;42.868;25.320;2023-12-14T13:34:27;17.48;;;7.82;;
20038;SDS011;21737;42.868;25.320;2023-12-14T13:36:54;17.55;;;7.78;;
20038;SDS011;21737;42.868;25.320;2023-12-14T13:39:20;15.38;;;6.80;;
20038;SDS011;21737;42.868;25.320;2023-12-14T13:41:47;15.35;;;6.75;;
20038;SDS011;21737;42.868;25.320;2023-12-14T13:44:13;22.20;;;8.63;;
20038;SDS011;21737;42.868;25.320;2023-12-14T13:46:39;57.63;;;23.90;;
20038;SDS011;21737;42.868;25.320;2023-12-14T13:49:06;22.27;;;9.80;;
20038;SDS011;21737;42.868;25.320;2023-12-14T13:51:32;17.70;;;8.35;;
20038;SDS011;21737;42.868;25.320;2023-12-14T13:53:59;9.35;;;4.45;;
20038;SDS011;21737;42.868;25.320;2023-12-14T13:56:24;20.88;;;7.65;;
20038;SDS011;21737;42.868;25.320;2023-12-14T13:58:50;15.65;;;7.47;;
20038;SDS011;21737;42.868;25.320;2023-12-14T14:01:16;19.90;;;7.07;;
20038;SDS011;21737;42.868;25.320;2023-12-14T14:03:42;13.18;;;6.22;;
20038;SDS011;21737;42.868;25.320;2023-12-14T14:06:08;14.13;;;5.53;;
20038;SDS011;21737;42.868;25.320;2023-12-14T14:08:34;14.65;;;5.13;;
20038;SDS011;21737;42.868;25.320;2023-12-14T14:11:00;10.18;;;4.85;;
20038;SDS011;21737;42.868;25.320;2023-12-14T14:13:28;13.23;;;5.22;;
20038;SDS011;21737;42.868;25.320;2023-12-14T14:15:54;9.77;;;4.53;;
20038;SDS011;21737;42.868;25.320;2023-12-14T14:18:21;13.70;;;5.15;;
20038;SDS011;21737;42.868;25.320;2023-12-14T14:20:47;11.05;;;5.22;;
20038;SDS011;21737;42.868;25.320;2023-12-14T14:23:13;20.83;;;6.47;;
20038;SDS011;21737;42.868;25.320;2023-12-14T14:25:40;23.05;;;8.20;;
20038;SDS011;21737;42.868;25.320;2023-12-14T14:28:06;20.52;;;8.20;;
20038;SDS011;21737;42.868;25.320;2023-12-14T14:30:32;15.48;;;7.40;;
20038;SDS011;21737;42.868;25.320;2023-12-14T14:32:59;20.83;;;8.07;;
20038;SDS011;21737;42.868;25.320;2023-12-14T14:35:25;21.63;;;7.78;;
20038;SDS011;21737;42.868;25.320;2023-12-14T14:37:51;24.73;;;9.82;;
20038;SDS011;21737;42.868;25.320;2023-12-14T14:40:19;27.35;;;11.07;;
20038;SDS011;21737;42.868;25.320;2023-12-14T14:42:45;30.00;;;14.02;;
20038;SDS011;21737;42.868;25.320;2023-12-14T14:45:11;21.63;;;10.35;;